createdAt,value
2018-12-18T00:00:36.760Z,8.90
2018-12-18T00:03:04.362Z,8.90
2018-12-18T00:05:34.871Z,9.00
2018-12-18T00:08:02.716Z,9.00
2018-12-18T00:10:37.219Z,8.90
2018-12-18T00:13:04.933Z,8.80
2018-12-18T00:15:32.520Z,8.70
2018-12-18T00:18:00.100Z,8.70
2018-12-18T00:20:27.755Z,8.70
2018-12-18T00:22:55.263Z,8.70
2018-12-18T00:25:22.917Z,8.80
2018-12-18T00:27:50.469Z,8.80
2018-12-18T00:30:18.028Z,8.70
2018-12-18T00:32:45.526Z,8.80
2018-12-18T00:35:13.152Z,8.80
2018-12-18T00:37:40.714Z,8.80
2018-12-18T00:40:08.357Z,8.80
2018-12-18T00:42:35.831Z,8.80
2018-12-18T00:45:04.026Z,8.90
2018-12-18T00:47:31.906Z,8.90
2018-12-18T00:49:59.379Z,8.90
2018-12-18T00:52:26.937Z,8.80
2018-12-18T00:54:54.537Z,8.80
2018-12-18T00:57:21.996Z,8.80
2018-12-18T00:59:50.702Z,8.90
2018-12-18T01:02:18.198Z,8.90
2018-12-18T01:04:45.871Z,8.80
2018-12-18T01:07:13.602Z,8.90
2018-12-18T01:09:41.169Z,8.80
2018-12-18T01:12:08.679Z,8.80
2018-12-18T01:14:36.169Z,9.00
2018-12-18T01:17:03.668Z,9.00
2018-12-18T01:19:31.169Z,9.10
2018-12-18T01:21:58.678Z,9.10
2018-12-18T01:24:26.205Z,9.20
2018-12-18T01:26:53.751Z,9.10
2018-12-18T01:29:21.284Z,9.00
2018-12-18T01:31:48.852Z,9.00
2018-12-18T01:34:16.421Z,9.00
2018-12-18T01:36:44.069Z,8.90
2018-12-18T01:39:11.574Z,9.00
2018-12-18T01:41:39.122Z,8.90
2018-12-18T01:44:06.622Z,9.00
2018-12-18T01:46:34.237Z,9.00
2018-12-18T01:49:01.704Z,8.90
2018-12-18T01:51:29.519Z,8.90
2018-12-18T01:53:57.099Z,8.90
2018-12-18T01:56:24.551Z,8.90
2018-12-18T01:58:52.137Z,8.90
2018-12-18T02:01:19.710Z,9.00
2018-12-18T02:03:47.311Z,9.00
2018-12-18T02:06:14.891Z,9.00
2018-12-18T02:08:42.551Z,9.10
2018-12-18T02:11:09.994Z,9.10
2018-12-18T02:13:37.758Z,9.10
2018-12-18T02:16:05.239Z,9.00
2018-12-18T02:18:32.697Z,9.00
2018-12-18T02:21:00.182Z,9.10
2018-12-18T02:23:27.636Z,9.00
2018-12-18T02:25:55.140Z,9.00
2018-12-18T02:28:22.855Z,9.00
2018-12-18T02:30:50.355Z,9.00
2018-12-18T02:33:18.670Z,9.00
2018-12-18T02:35:46.342Z,9.00
2018-12-18T02:38:13.837Z,9.00
2018-12-18T02:40:41.421Z,9.10
2018-12-18T02:43:09.085Z,9.10
2018-12-18T02:45:36.573Z,9.10
2018-12-18T02:48:04.192Z,9.10
2018-12-18T02:50:31.666Z,9.10
2018-12-18T02:52:59.121Z,9.10
2018-12-18T02:55:26.608Z,9.10
2018-12-18T02:57:54.122Z,9.10
2018-12-18T03:00:21.678Z,9.10
2018-12-18T03:02:49.136Z,9.10
2018-12-18T03:05:16.761Z,9.10
2018-12-18T03:07:44.228Z,9.10
2018-12-18T03:10:11.836Z,9.20
2018-12-18T03:12:39.297Z,9.20
2018-12-18T03:15:06.894Z,9.30
2018-12-18T03:17:34.484Z,9.30
2018-12-18T03:20:01.957Z,9.30
2018-12-18T03:22:29.447Z,9.30
2018-12-18T03:24:56.927Z,9.30
2018-12-18T03:27:24.466Z,9.30
2018-12-18T03:29:51.962Z,9.30
2018-12-18T03:32:20.570Z,9.30
2018-12-18T03:34:48.226Z,9.30
2018-12-18T03:37:15.692Z,9.30
2018-12-18T03:39:43.176Z,9.30
2018-12-18T03:42:10.617Z,9.30
2018-12-18T03:44:38.177Z,9.30
2018-12-18T03:47:05.652Z,9.20
2018-12-18T03:49:33.122Z,9.20
2018-12-18T03:52:00.626Z,9.20
2018-12-18T03:54:28.091Z,9.10
2018-12-18T03:56:55.582Z,9.00
2018-12-18T03:59:23.256Z,9.00
2018-12-18T04:01:50.899Z,8.90
2018-12-18T04:04:18.345Z,8.90
2018-12-18T04:06:45.859Z,8.80
2018-12-18T04:09:13.308Z,8.70
2018-12-18T04:11:42.758Z,8.70
2018-12-18T04:14:10.218Z,8.60
2018-12-18T04:16:37.968Z,8.60
2018-12-18T04:19:05.420Z,8.70
2018-12-18T04:21:32.906Z,8.70
2018-12-18T04:24:00.445Z,8.70
2018-12-18T04:26:27.937Z,8.70
2018-12-18T04:28:55.401Z,8.70
2018-12-18T04:31:22.999Z,8.60
2018-12-18T04:33:50.463Z,8.50
2018-12-18T04:36:17.949Z,8.40
2018-12-18T04:38:45.447Z,8.50
2018-12-18T04:41:12.996Z,8.40
2018-12-18T04:43:40.507Z,8.40
2018-12-18T04:46:08.058Z,8.30
2018-12-18T04:48:35.498Z,8.40
2018-12-18T04:51:03.004Z,8.40
2018-12-18T04:53:30.748Z,8.40
2018-12-18T04:55:58.243Z,8.50
2018-12-18T04:58:25.698Z,8.50
2018-12-18T05:00:54.498Z,8.50
2018-12-18T05:03:22.066Z,8.60
2018-12-18T05:05:49.682Z,8.60
2018-12-18T05:08:17.205Z,8.70
2018-12-18T05:10:44.697Z,8.70
2018-12-18T05:13:12.155Z,8.70
2018-12-18T05:15:39.635Z,8.70
2018-12-18T05:18:07.100Z,8.80
2018-12-18T05:20:34.658Z,8.80
2018-12-18T05:23:02.228Z,8.80
2018-12-18T05:25:29.714Z,8.70
2018-12-18T05:27:57.192Z,8.60
2018-12-18T05:30:24.657Z,8.70
2018-12-18T05:32:52.162Z,8.70
2018-12-18T05:35:19.626Z,8.60
2018-12-18T05:37:47.161Z,8.50
2018-12-18T05:40:14.608Z,8.50
2018-12-18T05:42:42.096Z,8.60
2018-12-18T05:45:09.552Z,8.70
2018-12-18T05:47:37.182Z,8.80
2018-12-18T05:50:06.068Z,8.90
2018-12-18T05:52:33.643Z,8.90
2018-12-18T05:55:01.102Z,8.90
2018-12-18T05:57:28.700Z,8.90
2018-12-18T05:59:56.185Z,8.90
2018-12-18T06:02:23.695Z,9.00
2018-12-18T06:04:51.166Z,9.00
2018-12-18T06:07:18.657Z,9.00
2018-12-18T06:09:46.173Z,9.10
2018-12-18T06:12:13.664Z,9.10
2018-12-18T06:14:41.184Z,9.00
2018-12-18T06:17:08.714Z,9.00
2018-12-18T06:19:36.245Z,9.00
2018-12-18T06:22:03.733Z,9.10
2018-12-18T06:24:31.219Z,9.10
2018-12-18T06:26:58.762Z,9.20
2018-12-18T06:29:26.309Z,9.20
2018-12-18T06:31:55.351Z,9.20
2018-12-18T06:34:23.105Z,9.20
2018-12-18T06:36:50.665Z,9.00
2018-12-18T06:39:18.121Z,9.00
2018-12-18T06:41:45.628Z,8.80
2018-12-18T06:44:13.078Z,8.80
2018-12-18T06:46:40.688Z,8.80
2018-12-18T06:49:08.234Z,8.80
2018-12-18T06:51:35.766Z,8.70
2018-12-18T06:54:03.289Z,8.70
2018-12-18T06:56:30.907Z,8.70
2018-12-18T06:58:59.327Z,8.60
2018-12-18T07:01:26.927Z,8.60
2018-12-18T07:03:54.492Z,8.50
2018-12-18T07:06:22.081Z,8.40
2018-12-18T07:08:49.656Z,8.40
2018-12-18T07:11:17.121Z,8.30
2018-12-18T07:13:44.615Z,8.40
2018-12-18T07:16:12.116Z,8.40
2018-12-18T07:18:39.594Z,8.40
2018-12-18T07:21:07.100Z,8.40
2018-12-18T07:23:34.593Z,8.30
2018-12-18T07:26:02.897Z,8.20
2018-12-18T07:28:30.385Z,8.20
2018-12-18T07:30:57.848Z,8.20
2018-12-18T07:33:25.405Z,8.20
2018-12-18T07:35:52.983Z,8.10
2018-12-18T07:38:20.514Z,8.10
2018-12-18T07:40:49.083Z,8.00
2018-12-18T07:43:16.624Z,8.00
2018-12-18T07:45:44.185Z,8.00
2018-12-18T07:48:11.743Z,8.00
2018-12-18T07:50:39.295Z,8.00
2018-12-18T07:53:06.839Z,8.20
2018-12-18T07:55:34.462Z,8.20
2018-12-18T07:58:01.960Z,8.30
2018-12-18T08:00:29.438Z,8.30
2018-12-18T08:02:56.922Z,8.40
2018-12-18T08:05:29.807Z,8.40
2018-12-18T08:07:54.280Z,8.40
2018-12-18T08:10:21.729Z,8.40
2018-12-18T08:12:49.253Z,8.50
2018-12-18T08:15:17.015Z,8.40
2018-12-18T08:17:44.487Z,8.40
2018-12-18T08:20:11.998Z,8.40
2018-12-18T08:22:39.526Z,8.30
2018-12-18T08:25:07.102Z,8.40
2018-12-18T08:27:34.644Z,8.50
2018-12-18T08:30:02.181Z,8.50
2018-12-18T08:32:29.772Z,8.60
2018-12-18T08:34:57.250Z,8.70
2018-12-18T08:37:24.805Z,8.70
2018-12-18T08:39:52.444Z,8.80
2018-12-18T08:42:19.978Z,8.80
2018-12-18T08:44:47.430Z,8.90
2018-12-18T08:47:15.007Z,9.00
2018-12-18T08:49:42.466Z,9.00
2018-12-18T08:52:10.097Z,9.00
2018-12-18T08:54:37.612Z,9.00
2018-12-18T08:57:05.128Z,9.00
2018-12-18T08:59:32.682Z,9.00
2018-12-18T09:02:00.214Z,9.00
2018-12-18T09:04:27.706Z,8.90
2018-12-18T09:06:55.314Z,8.90
2018-12-18T09:09:22.962Z,9.00
2018-12-18T09:11:50.540Z,9.00
2018-12-18T09:14:18.097Z,9.00
2018-12-18T09:16:51.286Z,9.10
2018-12-18T09:19:18.785Z,9.10
2018-12-18T09:21:46.301Z,9.10
2018-12-18T09:24:13.866Z,9.10
2018-12-18T09:26:41.325Z,9.20
2018-12-18T09:29:08.815Z,9.20
2018-12-18T09:31:36.274Z,9.30
2018-12-18T09:34:03.831Z,9.40
2018-12-18T09:36:31.387Z,9.50
2018-12-18T09:39:04.461Z,9.50
2018-12-18T09:41:33.886Z,9.60
2018-12-18T09:44:07.005Z,9.60
2018-12-18T09:46:34.574Z,9.70
2018-12-18T09:49:02.055Z,9.70
2018-12-18T09:51:29.651Z,9.80
2018-12-18T09:53:57.189Z,9.80
2018-12-18T09:56:24.693Z,9.80
2018-12-18T09:58:52.171Z,9.80
2018-12-18T10:01:19.708Z,9.80
2018-12-18T10:03:47.307Z,9.80
2018-12-18T10:06:14.771Z,10.00
2018-12-18T10:08:42.320Z,10.00
2018-12-18T10:11:09.812Z,10.10
2018-12-18T10:13:37.482Z,10.20
2018-12-18T10:16:04.986Z,10.30
2018-12-18T10:18:32.480Z,10.30
2018-12-18T10:21:00.044Z,10.30
2018-12-18T10:23:27.521Z,10.40
2018-12-18T10:25:55.062Z,10.40
2018-12-18T10:28:22.562Z,10.50
2018-12-18T10:30:50.039Z,10.70
2018-12-18T10:33:17.510Z,10.70
2018-12-18T10:35:45.073Z,10.80
2018-12-18T10:38:12.566Z,10.90
2018-12-18T10:40:40.058Z,11.00
2018-12-18T10:43:07.517Z,11.20
2018-12-18T10:45:35.066Z,11.20
2018-12-18T10:48:02.616Z,11.10
2018-12-18T10:50:30.270Z,11.00
2018-12-18T10:52:57.829Z,11.00
2018-12-18T10:55:25.366Z,11.00
2018-12-18T10:57:52.893Z,11.00
2018-12-18T11:00:22.336Z,11.10
2018-12-18T11:02:49.874Z,11.10
2018-12-18T11:05:17.469Z,11.20
2018-12-18T11:07:44.954Z,11.10
2018-12-18T11:10:12.629Z,11.20
2018-12-18T11:12:40.205Z,11.20
2018-12-18T11:15:07.876Z,11.20
2018-12-18T11:17:35.500Z,11.30
2018-12-18T11:20:03.501Z,11.40
2018-12-18T11:22:31.016Z,11.40
2018-12-18T11:24:58.564Z,11.40
2018-12-18T11:27:26.189Z,11.30
2018-12-18T11:29:53.742Z,11.30
2018-12-18T11:32:21.231Z,11.30
2018-12-18T11:34:48.772Z,11.30
2018-12-18T11:37:16.265Z,11.40
2018-12-18T11:39:43.930Z,11.50
2018-12-18T11:42:11.431Z,11.60
2018-12-18T11:44:38.896Z,11.70
2018-12-18T11:47:06.408Z,11.80
2018-12-18T11:49:33.861Z,11.80
2018-12-18T11:52:01.381Z,11.90
2018-12-18T11:54:29.127Z,11.80
2018-12-18T11:56:56.732Z,11.90
2018-12-18T11:59:24.245Z,11.90
2018-12-18T12:01:51.845Z,11.80
2018-12-18T12:04:19.376Z,11.90
2018-12-18T12:06:46.856Z,12.00
2018-12-18T12:09:14.317Z,12.00
2018-12-18T12:11:41.952Z,12.00
2018-12-18T12:14:09.455Z,12.10
2018-12-18T12:16:37.083Z,12.10
2018-12-18T12:19:04.540Z,12.10
2018-12-18T12:21:32.039Z,12.10
2018-12-18T12:23:59.578Z,12.20
2018-12-18T12:26:33.525Z,12.20
2018-12-18T12:29:01.202Z,12.20
2018-12-18T12:31:28.762Z,12.20
2018-12-18T12:33:56.238Z,12.20
2018-12-18T12:36:29.470Z,12.30
2018-12-18T12:38:53.232Z,12.40
2018-12-18T12:41:20.701Z,12.40
2018-12-18T12:43:48.178Z,12.60
2018-12-18T12:46:15.667Z,12.60
2018-12-18T12:48:48.759Z,12.60
2018-12-18T12:51:16.246Z,12.60
2018-12-18T12:53:43.721Z,12.60
2018-12-18T12:56:11.213Z,12.70
2018-12-18T12:58:38.689Z,12.70
2018-12-18T13:01:06.157Z,12.60
2018-12-18T13:03:33.671Z,12.70
2018-12-18T13:06:01.172Z,12.70
2018-12-18T13:08:28.691Z,12.80
2018-12-18T13:10:56.173Z,12.70
2018-12-18T13:13:23.762Z,12.70
2018-12-18T13:15:51.231Z,12.70
2018-12-18T13:18:18.701Z,12.60
2018-12-18T13:20:46.159Z,12.60
2018-12-18T13:23:13.753Z,12.60
2018-12-18T13:25:41.208Z,12.70
2018-12-18T13:28:08.704Z,12.80
2018-12-18T13:30:36.254Z,12.80
2018-12-18T13:33:03.806Z,12.80
2018-12-18T13:35:31.287Z,12.90
2018-12-18T13:37:58.961Z,12.90
2018-12-18T13:40:26.453Z,12.80
2018-12-18T13:42:53.952Z,12.80
2018-12-18T13:45:21.434Z,12.70
2018-12-18T13:47:49.031Z,12.70
2018-12-18T13:50:16.514Z,12.60
2018-12-18T13:52:43.994Z,12.60
2018-12-18T13:55:11.481Z,12.50
2018-12-18T13:57:39.064Z,12.30
2018-12-18T14:00:06.791Z,12.20
2018-12-18T14:02:34.832Z,12.10
2018-12-18T14:05:02.291Z,12.00
2018-12-18T14:07:29.995Z,11.80
2018-12-18T14:09:57.675Z,11.80
2018-12-18T14:12:25.151Z,11.70
2018-12-18T14:14:52.608Z,11.70
2018-12-18T14:19:54.141Z,11.60
2018-12-18T14:22:21.656Z,11.50
2018-12-18T14:24:49.118Z,11.40
2018-12-18T14:27:16.613Z,11.40
2018-12-18T14:29:44.077Z,11.30
2018-12-18T14:32:11.614Z,11.30
2018-12-18T14:34:39.075Z,11.30
2018-12-18T14:37:06.623Z,11.30
2018-12-18T14:39:34.349Z,11.30
2018-12-18T14:42:01.873Z,11.30
2018-12-18T14:44:29.391Z,11.20
2018-12-18T14:46:56.839Z,11.20
2018-12-18T14:49:24.438Z,11.00
2018-12-18T14:51:51.937Z,10.90
2018-12-18T14:54:19.561Z,10.80
2018-12-18T14:56:47.031Z,10.70
2018-12-18T14:59:14.501Z,10.50
2018-12-18T15:01:41.992Z,10.40
2018-12-18T15:04:09.555Z,10.40
2018-12-18T15:06:37.001Z,10.30
2018-12-18T15:09:05.687Z,10.30
2018-12-18T15:11:33.246Z,10.40
2018-12-18T15:14:00.753Z,10.40
2018-12-18T15:16:28.241Z,10.40
2018-12-18T15:18:55.790Z,10.40
2018-12-18T15:21:23.362Z,10.40
2018-12-18T15:23:50.947Z,10.40
2018-12-18T15:26:18.426Z,10.40
2018-12-18T15:28:45.904Z,10.30
2018-12-18T15:31:13.516Z,10.30
2018-12-18T15:33:41.089Z,10.20
2018-12-18T15:36:08.608Z,10.10
2018-12-18T15:38:36.104Z,10.10
2018-12-18T15:41:03.648Z,10.10
2018-12-18T15:43:31.224Z,10.00
2018-12-18T15:45:58.672Z,10.10
2018-12-18T15:48:26.235Z,10.10
2018-12-18T15:50:53.710Z,10.10
2018-12-18T15:53:21.279Z,10.10
2018-12-18T15:55:48.736Z,10.00
2018-12-18T15:58:16.214Z,10.00
2018-12-18T16:00:43.675Z,10.00
2018-12-18T16:03:11.270Z,9.90
2018-12-18T16:05:38.753Z,9.90
2018-12-18T16:08:06.204Z,9.80
2018-12-18T16:10:33.750Z,9.70
2018-12-18T16:13:01.304Z,9.60
2018-12-18T16:15:28.809Z,9.60
2018-12-18T16:17:56.347Z,9.50
2018-12-18T16:20:23.861Z,9.50
2018-12-18T16:22:51.414Z,9.50
2018-12-18T16:25:18.882Z,9.50
2018-12-18T16:27:46.366Z,9.60
2018-12-18T16:30:13.977Z,9.70
2018-12-18T16:32:41.513Z,9.70
2018-12-18T16:35:09.138Z,9.70
2018-12-18T16:37:36.661Z,9.70
2018-12-18T16:40:04.632Z,9.60
2018-12-18T16:42:32.750Z,9.60
2018-12-18T16:45:00.285Z,9.50
2018-12-18T16:47:27.733Z,9.40
2018-12-18T16:49:55.291Z,9.30
2018-12-18T16:52:22.761Z,9.20
2018-12-18T16:54:50.294Z,9.20
2018-12-18T16:57:17.749Z,9.20
2018-12-18T16:59:45.218Z,9.10
2018-12-18T17:02:12.686Z,9.20
2018-12-18T17:04:40.298Z,9.20
2018-12-18T17:07:07.770Z,9.20
2018-12-18T17:09:35.301Z,9.20
2018-12-18T17:12:02.794Z,9.10
2018-12-18T17:14:30.374Z,9.10
2018-12-18T17:16:57.930Z,9.10
2018-12-18T17:19:25.439Z,9.10
2018-12-18T17:21:52.914Z,9.00
2018-12-18T17:24:20.543Z,9.10
2018-12-18T17:26:48.127Z,9.10
2018-12-18T17:29:15.595Z,9.10
2018-12-18T17:31:43.053Z,9.10
2018-12-18T17:34:10.646Z,9.00
2018-12-18T17:36:38.230Z,9.00
2018-12-18T17:39:06.842Z,9.00
2018-12-18T17:41:34.392Z,9.00
2018-12-18T17:44:02.166Z,8.90
2018-12-18T17:46:29.661Z,8.90
2018-12-18T17:48:57.353Z,8.90
2018-12-18T17:51:24.861Z,8.90
2018-12-18T17:53:52.334Z,8.90
2018-12-18T17:56:19.806Z,8.90
2018-12-18T17:58:47.310Z,8.90
2018-12-18T18:01:14.992Z,8.90
2018-12-18T18:03:42.535Z,8.90
2018-12-18T18:06:10.109Z,8.80
2018-12-18T18:08:37.624Z,8.80
2018-12-18T18:11:05.114Z,8.70
2018-12-18T18:13:32.584Z,8.60
2018-12-18T18:16:00.212Z,8.60
2018-12-18T18:18:27.669Z,8.50
2018-12-18T18:20:55.156Z,8.50
2018-12-18T18:23:22.614Z,8.40
2018-12-18T18:25:50.108Z,8.30
2018-12-18T18:28:17.571Z,8.20
2018-12-18T18:30:45.054Z,8.10
2018-12-18T18:33:12.513Z,8.00
2018-12-18T18:35:40.018Z,7.90
2018-12-18T18:38:07.527Z,7.80
2018-12-18T18:40:35.017Z,7.70
2018-12-18T18:43:02.518Z,7.60
2018-12-18T18:45:29.990Z,7.60
2018-12-18T18:47:57.570Z,7.70
2018-12-18T18:50:25.151Z,7.70
2018-12-18T18:52:52.608Z,7.60
2018-12-18T18:55:20.126Z,7.60
2018-12-18T18:57:47.609Z,7.60
2018-12-18T19:00:15.066Z,7.60
2018-12-18T19:02:42.568Z,7.60
2018-12-18T19:05:10.026Z,7.60
2018-12-18T19:07:37.508Z,7.60
2018-12-18T19:10:06.198Z,7.60
2018-12-18T19:12:33.764Z,7.70
2018-12-18T19:15:01.233Z,7.70
2018-12-18T19:17:28.720Z,7.60
2018-12-18T19:19:56.198Z,7.60
2018-12-18T19:22:23.677Z,7.60
2018-12-18T19:24:51.331Z,7.60
2018-12-18T19:27:18.816Z,7.60
2018-12-18T19:29:46.281Z,7.70
2018-12-18T19:32:13.774Z,7.70
2018-12-18T19:34:41.233Z,7.70
2018-12-18T19:37:08.727Z,7.70
2018-12-18T19:39:36.224Z,7.70
2018-12-18T19:42:03.859Z,7.70
2018-12-18T19:44:31.338Z,7.60
2018-12-18T19:46:58.861Z,7.70
2018-12-18T19:49:26.425Z,7.70
2018-12-18T19:51:53.909Z,7.70
2018-12-18T19:54:21.395Z,7.70
2018-12-18T19:56:48.878Z,7.70
2018-12-18T19:59:16.385Z,7.80
2018-12-18T20:01:43.948Z,7.90
2018-12-18T20:04:11.462Z,7.90
2018-12-18T20:06:38.991Z,7.80
2018-12-18T20:09:07.041Z,7.80
2018-12-18T20:11:35.039Z,7.70
2018-12-18T20:14:02.558Z,7.80
2018-12-18T20:16:30.062Z,7.80
2018-12-18T20:18:57.625Z,7.80
2018-12-18T20:21:25.209Z,7.90
2018-12-18T20:23:52.763Z,7.80
2018-12-18T20:26:20.270Z,7.80
2018-12-18T20:28:47.844Z,7.70
2018-12-18T20:31:15.323Z,7.70
2018-12-18T20:33:42.865Z,7.60
2018-12-18T20:36:10.383Z,7.60
2018-12-18T20:38:37.915Z,7.60
2018-12-18T20:41:05.421Z,7.60
2018-12-18T20:43:32.977Z,7.50
2018-12-18T20:46:00.606Z,7.50
2018-12-18T20:48:28.100Z,7.40
2018-12-18T20:50:55.554Z,7.30
2018-12-18T20:53:23.034Z,7.30
2018-12-18T20:55:51.799Z,7.30
2018-12-18T20:58:19.374Z,7.20
2018-12-18T21:00:46.922Z,7.20
2018-12-18T21:03:14.450Z,7.10
2018-12-18T21:05:41.913Z,7.00
2018-12-18T21:08:09.614Z,6.90
2018-12-18T21:10:37.082Z,6.80
2018-12-18T21:13:10.257Z,6.80
2018-12-18T21:15:44.579Z,6.80
2018-12-18T21:18:12.054Z,6.90
2018-12-18T21:20:39.519Z,7.00
2018-12-18T21:23:06.993Z,7.00
2018-12-18T21:25:34.458Z,7.00
2018-12-18T21:28:02.049Z,6.90
2018-12-18T21:30:29.544Z,6.90
2018-12-18T21:32:57.057Z,7.00
2018-12-18T21:35:24.572Z,7.00
2018-12-18T21:37:52.499Z,7.10
2018-12-18T21:40:20.007Z,7.00
2018-12-18T21:42:47.473Z,7.00
2018-12-18T21:45:14.952Z,7.00
2018-12-18T21:47:42.414Z,7.00
2018-12-18T21:50:09.974Z,7.00
2018-12-18T21:52:37.530Z,6.80
2018-12-18T21:55:05.193Z,6.70
2018-12-18T21:57:32.870Z,6.60
2018-12-18T22:00:00.369Z,6.50
2018-12-18T22:02:27.837Z,6.50
2018-12-18T22:04:55.331Z,6.40
2018-12-18T22:07:22.822Z,6.30
2018-12-18T22:09:50.286Z,6.30
2018-12-18T22:12:17.737Z,6.20
2018-12-18T22:14:45.226Z,6.20
2018-12-18T22:17:12.686Z,6.10
2018-12-18T22:19:40.217Z,6.10
2018-12-18T22:22:07.728Z,6.20
2018-12-18T22:24:35.274Z,6.30
2018-12-18T22:27:02.894Z,6.30
2018-12-18T22:29:30.374Z,6.50
2018-12-18T22:31:57.834Z,6.50
2018-12-18T22:34:25.333Z,6.60
2018-12-18T22:36:52.878Z,6.60
2018-12-18T22:39:20.471Z,6.80
2018-12-18T22:41:47.933Z,6.90
2018-12-18T22:44:15.453Z,6.90
2018-12-18T22:46:42.984Z,6.90
2018-12-18T22:49:10.448Z,6.90
2018-12-18T22:51:37.931Z,6.90
2018-12-18T22:54:05.398Z,6.90
2018-12-18T22:56:32.863Z,6.90
2018-12-18T22:59:00.346Z,6.90
2018-12-18T23:01:33.462Z,6.90
2018-12-18T23:04:00.941Z,6.90
2018-12-18T23:06:28.449Z,6.90
2018-12-18T23:08:55.906Z,6.90
2018-12-18T23:11:23.374Z,7.00
2018-12-18T23:13:51.093Z,7.00
2018-12-18T23:16:18.655Z,6.90
2018-12-18T23:18:46.144Z,6.90
2018-12-18T23:21:13.632Z,6.90
2018-12-18T23:23:41.090Z,6.80
2018-12-18T23:26:08.559Z,6.80
2018-12-18T23:28:36.163Z,6.80
2018-12-18T23:31:03.638Z,6.90
2018-12-18T23:33:31.186Z,6.90
2018-12-18T23:35:58.790Z,6.90
2018-12-18T23:38:26.311Z,6.90
2018-12-18T23:40:53.792Z,6.90
2018-12-18T23:43:21.300Z,6.90
2018-12-18T23:45:48.843Z,7.00
2018-12-18T23:48:16.439Z,7.10
2018-12-18T23:50:44.342Z,7.00
2018-12-18T23:53:11.798Z,7.10
2018-12-18T23:55:39.332Z,7.00
2018-12-18T23:58:06.899Z,7.00
